Time;durP1;ratioP1;P1;durP2;ratioP2;P2;SDS_P1;SDS_P2;PMS_P1;PMS_P2;Temp;Humidity;BMP_temperature;BMP_pressure;BME280_temperature;BME280_humidity;BME280_pressure;Samples;Min_cycle;Max_cycle;Signal;HPM_P1;HPM_P2
2021/09/25 07:32:15;;;;;;;5.28;4.30;;;13.40;99.40;;;;;;4982329;23;20254;-92
2021/09/25 07:35:05;;;;;;;4.53;4.13;;;13.50;99.20;;;;;;4974497;28;20229;-91
2021/09/25 07:37:33;;;;;;;4.50;4.10;;;13.60;98.80;;;;;;4979801;28;20212;-92
2021/09/25 07:40:00;;;;;;;5.95;4.60;;;13.70;98.70;;;;;;4977399;28;20228;-91
2021/09/25 07:45:49;;;;;;;7.38;4.03;;;13.90;98.60;;;;;;4960778;28;20216;-90
2021/09/25 07:48:18;;;;;;;5.65;4.38;;;14.10;98.30;;;;;;4965312;28;20337;-92
2021/09/25 07:50:45;;;;;;;6.28;4.38;;;14.30;98.10;;;;;;4968473;28;20283;-91
2021/09/25 07:53:12;;;;;;;4.68;3.80;;;14.50;97.50;;;;;;4975631;28;20201;-89
2021/09/25 07:56:11;;;;;;;4.20;3.83;;;14.70;96.50;;;;;;4975026;28;20236;-91
2021/09/25 07:58:37;;;;;;;4.82;4.00;;;14.80;95.60;;;;;;4975678;28;20220;-90
2021/09/25 08:01:04;;;;;;;4.32;3.80;;;14.90;95.00;;;;;;4967399;28;20236;-93
2021/09/25 08:06:37;;;;;;;5.03;3.60;;;15.20;95.10;;;;;;4954859;28;20295;-93
2021/09/25 08:09:04;;;;;;;4.97;4.07;;;15.20;95.00;;;;;;4959873;28;20236;-93
2021/09/25 08:11:31;;;;;;;4.38;3.97;;;15.30;94.80;;;;;;4942934;28;20277;-92
2021/09/25 08:13:58;;;;;;;4.00;3.60;;;15.50;94.60;;;;;;4976916;28;20224;-94
2021/09/25 08:16:25;;;;;;;5.32;4.25;;;15.50;94.40;;;;;;4980704;28;20296;-93
2021/09/25 08:21:36;;;;;;;4.45;4.05;;;15.80;94.40;;;;;;4965981;28;20292;-94
2021/09/25 08:44:36;;;;;;;4.53;4.13;;;17.30;90.10;;;;;;4918999;29;20207;-91
2021/09/25 08:47:04;;;;;;;4.22;3.83;;;17.30;85.10;;;;;;4914304;29;20310;-90
2021/09/25 08:49:31;;;;;;;4.63;4.03;;;17.50;79.00;;;;;;4913796;29;20244;-88
2021/09/25 09:20:25;;;;;;;3.13;2.90;;;22.00;46.20;;;;;;4978951;28;20583;-83
2021/09/25 09:26:36;;;;;;;2.95;2.75;;;23.90;35.80;;;;;;4977456;28;20275;-85
2021/09/25 09:29:59;;;;;;;3.38;2.80;;;24.40;33.80;;;;;;4980468;28;20196;-85
2021/09/25 09:32:45;;;;;;;3.25;2.95;;;25.40;32.40;;;;;;4978403;28;20548;-87
2021/09/25 09:35:14;;;;;;;3.15;2.90;;;27.20;27.20;;;;;;4977629;28;20200;-87
2021/09/25 09:41:04;;;;;;;3.33;3.03;;;28.80;21.30;;;;;;4911583;28;20210;-87
2021/09/25 09:43:31;;;;;;;3.38;3.08;;;29.00;20.50;;;;;;4931041;29;20209;-89
2021/09/25 09:45:59;;;;;;;3.92;3.22;;;29.40;20.00;;;;;;4965880;28;20238;-90
2021/09/25 09:48:32;;;;;;;6.43;3.10;;;30.80;18.40;;;;;;4969935;28;20540;-92
2021/09/25 09:50:59;;;;;;;3.75;3.47;;;31.20;17.30;;;;;;4975572;28;20228;-88
2021/09/25 09:59:40;;;;;;;3.92;3.60;;;33.80;14.80;;;;;;4935365;28;20252;-88
2021/09/25 10:02:39;;;;;;;3.80;3.42;;;33.00;16.00;;;;;;4969575;28;20632;-87
2021/09/25 10:05:07;;;;;;;3.40;3.10;;;33.20;13.70;;;;;;4970383;28;20208;-87
2021/09/25 10:07:34;;;;;;;3.20;3.00;;;30.10;16.70;;;;;;4975793;28;20200;-87
2021/09/25 10:10:01;;;;;;;3.92;3.00;;;30.80;17.00;;;;;;4964046;28;20240;-87
2021/09/25 10:13:13;;;;;;;3.55;3.25;;;31.20;17.20;;;;;;5051682;23;20174;-87
2021/09/25 10:15:41;;;;;;;3.40;3.10;;;31.70;17.50;;;;;;4995320;28;20663;-87
2021/09/25 10:18:08;;;;;;;3.53;3.22;;;32.10;17.60;;;;;;4997408;28;20216;-88
2021/09/25 10:20:36;;;;;;;3.85;3.40;;;31.80;17.50;;;;;;4997407;28;20238;-86
2021/09/25 10:23:03;;;;;;;3.50;3.22;;;32.20;17.70;;;;;;4997339;28;20278;-89
2021/09/25 10:25:30;;;;;;;3.45;3.25;;;32.20;17.70;;;;;;4996350;28;20294;-87
2021/09/25 10:27:58;;;;;;;3.70;3.50;;;33.00;16.40;;;;;;4996666;28;20199;-88
2021/09/25 10:34:33;;;;;;;3.47;3.17;;;31.20;17.20;;;;;;4997245;28;20195;-92
2021/09/25 10:37:01;;;;;;;3.38;3.08;;;30.70;17.00;;;;;;4996015;28;20306;-90
2021/09/25 10:39:33;;;;;;;3.58;3.38;;;31.10;18.30;;;;;;4987328;28;20759;-90
2021/09/25 10:42:06;;;;;;;3.20;3.00;;;30.80;17.00;;;;;;4997168;28;20214;-87
2021/09/25 10:44:40;;;;;;;3.20;3.00;;;30.90;17.10;;;;;;4993399;28;20291;-86
2021/09/25 10:47:13;;;;;;;3.45;3.13;;;31.20;17.20;;;;;;4984050;28;20202;-87
2021/09/25 10:49:49;;;;;;;3.33;3.10;;;31.40;17.30;;;;;;4976438;28;20270;-89
2021/09/25 10:52:20;;;;;;;3.33;3.03;;;30.10;16.70;;;;;;4993263;28;20196;-89
2021/09/25 10:55:07;;;;;;;3.38;3.08;;;30.00;16.60;;;;;;4992330;28;20232;-88
2021/09/25 10:57:33;;;;;;;3.63;3.33;;;29.30;16.30;;;;;;4993614;28;20238;-87
2021/09/25 11:00:20;;;;;;;3.40;3.10;;;28.70;19.80;;;;;;4982182;28;20239;-89
2021/09/25 11:02:48;;;;;;;5.07;3.13;;;28.10;20.00;;;;;;4988552;28;20203;-88
2021/09/25 11:05:17;;;;;;;4.78;3.05;;;27.80;20.50;;;;;;4978653;28;20234;-90
2021/09/25 11:07:59;;;;;;;3.15;2.85;;;27.20;26.40;;;;;;4989123;28;20326;-90
2021/09/25 11:11:02;;;;;;;3.75;2.60;;;26.70;25.50;;;;;;4987325;28;20238;-85
2021/09/25 11:14:08;;;;;;;5.82;2.83;;;26.10;24.30;;;;;;4973270;28;20229;-83
2021/09/25 11:17:06;;;;;;;3.20;2.90;;;25.90;26.10;;;;;;4970285;28;20238;-85
2021/09/25 11:19:40;;;;;;;3.28;2.97;;;25.50;26.40;;;;;;4927959;28;20228;-80
2021/09/25 11:22:10;;;;;;;5.10;2.90;;;25.40;28.00;;;;;;4970008;28;20210;-84
2021/09/25 11:24:40;;;;;;;2.80;2.60;;;25.00;26.50;;;;;;4967128;28;20312;-82
2021/09/25 11:27:10;;;;;;;4.80;2.92;;;24.70;27.90;;;;;;4966620;28;20212;-82
2021/09/25 11:29:57;;;;;;;4.13;3.20;;;24.80;28.00;;;;;;4968853;28;20240;-83
2021/09/25 11:32:26;;;;;;;3.50;3.20;;;24.50;29.60;;;;;;4970261;28;20197;-86
2021/09/25 11:34:53;;;;;;;2.92;2.72;;;24.40;29.60;;;;;;4961759;28;20235;-86
2021/09/25 11:37:20;;;;;;;2.75;2.55;;;24.50;28.90;;;;;;4968223;28;20211;-85
2021/09/25 11:39:50;;;;;;;3.15;2.90;;;24.30;28.90;;;;;;4959945;28;20580;-89
2021/09/25 11:42:19;;;;;;;5.13;3.05;;;24.20;28.50;;;;;;4962756;28;20197;-89
2021/09/25 11:44:59;;;;;;;3.17;2.63;;;24.30;28.30;;;;;;4938565;29;20229;-90
2021/09/25 11:47:29;;;;;;;2.83;2.55;;;24.20;28.50;;;;;;4961475;28;20207;-88
2021/09/25 11:50:00;;;;;;;3.75;2.88;;;24.40;27.80;;;;;;4961029;28;20237;-89
2021/09/25 11:52:29;;;;;;;2.60;2.40;;;24.40;28.80;;;;;;4961955;28;20197;-90
2021/09/25 11:55:01;;;;;;;2.83;2.53;;;24.40;30.00;;;;;;4960775;28;20616;-89
2021/09/25 11:57:28;;;;;;;3.58;3.00;;;24.50;28.30;;;;;;4966842;28;20211;-88
2021/09/25 11:59:55;;;;;;;5.03;2.85;;;24.40;29.20;;;;;;4961153;28;20246;-89
2021/09/25 12:02:40;;;;;;;3.10;2.80;;;24.40;29.50;;;;;;4962063;28;20207;-89
2021/09/25 12:05:24;;;;;;;3.30;3.00;;;24.20;30.00;;;;;;4963590;28;20228;-88
2021/09/25 12:07:51;;;;;;;3.30;3.00;;;24.20;30.60;;;;;;4960753;28;20197;-89
2021/09/25 12:10:29;;;;;;;6.18;2.90;;;24.30;29.20;;;;;;4957193;28;20232;-88
2021/09/25 12:13:00;;;;;;;5.32;3.10;;;24.30;29.80;;;;;;4960811;28;20223;-88
2021/09/25 12:15:30;;;;;;;5.18;3.13;;;24.40;30.80;;;;;;4964657;28;20303;-89
2021/09/25 12:18:12;;;;;;;2.83;2.63;;;24.40;29.00;;;;;;4964198;28;20205;-89
2021/09/25 12:20:40;;;;;;;3.35;2.80;;;24.40;29.10;;;;;;4957758;28;20232;-89
2021/09/25 12:23:09;;;;;;;3.05;2.85;;;24.30;30.40;;;;;;4958682;28;20588;-89
2021/09/25 12:28:31;;;;;;;3.00;2.70;;;24.10;29.90;;;;;;4964127;28;20343;-91
2021/09/25 12:31:07;;;;;;;4.07;2.80;;;24.10;28.20;;;;;;4958725;28;20224;-91
2021/09/25 12:33:34;;;;;;;4.10;3.70;;;23.80;29.60;;;;;;4957324;28;20284;-90
2021/09/25 12:38:47;;;;;;;4.60;2.80;;;23.70;31.40;;;;;;4956131;28;20221;-90
2021/09/25 12:41:18;;;;;;;3.05;2.85;;;23.70;30.50;;;;;;4963048;28;20241;-89
2021/09/25 12:43:47;;;;;;;3.20;2.90;;;23.80;30.00;;;;;;4961542;28;20196;-89
2021/09/25 12:46:22;;;;;;;4.25;2.85;;;23.80;29.40;;;;;;4961957;28;20217;-90
2021/09/25 12:49:12;;;;;;;3.20;2.90;;;23.80;31.80;;;;;;4967142;28;20197;-89
2021/09/25 12:51:46;;;;;;;3.03;2.83;;;23.90;30.40;;;;;;4981261;28;20259;-90
2021/09/25 12:54:14;;;;;;;4.65;3.40;;;24.00;30.30;;;;;;4979812;28;20204;-90
2021/09/25 12:59:32;;;;;;;3.33;3.00;;;24.10;33.30;;;;;;4981804;28;20281;-90
2021/09/25 13:02:03;;;;;;;3.30;3.00;;;24.00;30.50;;;;;;4987813;28;20195;-89
2021/09/25 13:04:32;;;;;;;3.47;3.00;;;23.80;32.10;;;;;;4982074;28;20700;-90
2021/09/25 13:07:00;;;;;;;4.28;2.60;;;23.70;30.90;;;;;;4987119;28;20663;-90
2021/09/25 13:09:28;;;;;;;3.50;3.20;;;23.70;30.80;;;;;;4982833;28;20235;-91
2021/09/25 13:12:13;;;;;;;3.20;2.97;;;23.60;32.10;;;;;;4984873;28;20200;-90
2021/09/25 13:14:40;;;;;;;4.65;2.47;;;23.80;33.50;;;;;;4985337;28;20282;-90
2021/09/25 13:17:08;;;;;;;3.70;2.92;;;23.70;30.20;;;;;;4998646;28;20214;-90
2021/09/25 13:19:35;;;;;;;3.03;2.80;;;23.60;31.40;;;;;;5002894;28;20257;-91
2021/09/25 13:22:09;;;;;;;4.05;2.95;;;23.60;32.30;;;;;;4991056;28;20260;-90
2021/09/25 13:24:36;;;;;;;6.75;2.90;;;23.40;31.80;;;;;;4988094;28;20228;-90
2021/09/25 13:27:03;;;;;;;3.65;3.08;;;23.50;32.40;;;;;;4989062;28;20266;-90
2021/09/25 13:29:32;;;;;;;5.47;2.78;;;23.70;32.20;;;;;;4991337;28;20236;-90
2021/09/25 13:31:59;;;;;;;3.13;2.80;;;23.80;30.90;;;;;;4999141;28;20662;-91
2021/09/25 13:34:26;;;;;;;2.95;2.70;;;23.80;31.80;;;;;;4989899;28;20591;-91
2021/09/25 13:36:53;;;;;;;3.25;2.78;;;23.90;30.30;;;;;;4984041;28;20197;-90
2021/09/25 13:39:20;;;;;;;3.20;2.90;;;23.90;31.90;;;;;;4989661;28;20582;-90
2021/09/25 13:41:47;;;;;;;2.97;2.60;;;23.80;35.20;;;;;;4986354;28;20667;-90
2021/09/25 13:44:14;;;;;;;3.58;3.05;;;23.70;30.90;;;;;;4993382;28;20623;-91
2021/09/25 13:46:42;;;;;;;3.45;3.08;;;23.70;30.00;;;;;;4989771;28;20210;-91
2021/09/25 13:49:09;;;;;;;2.72;2.35;;;23.70;31.10;;;;;;4992369;28;20210;-91
2021/09/25 13:51:36;;;;;;;3.60;2.75;;;23.70;30.80;;;;;;4971135;28;20200;-91
2021/09/25 13:54:03;;;;;;;4.13;2.50;;;23.60;30.90;;;;;;4987337;28;20223;-91
2021/09/25 13:56:31;;;;;;;3.90;2.45;;;23.60;30.00;;;;;;4989154;28;20234;-92
2021/09/25 13:58:58;;;;;;;3.28;2.60;;;23.60;31.20;;;;;;4981405;28;20200;-90
2021/09/25 14:01:28;;;;;;;2.83;2.50;;;23.40;30.80;;;;;;4986898;28;20225;-89
2021/09/25 14:04:01;;;;;;;2.95;2.60;;;23.50;30.10;;;;;;4984215;28;20199;-89
2021/09/25 14:06:28;;;;;;;3.95;2.55;;;23.60;31.40;;;;;;4991621;28;20282;-89
2021/09/25 14:08:54;;;;;;;5.13;2.60;;;23.40;32.60;;;;;;4981770;28;20212;-86
2021/09/25 14:11:21;;;;;;;2.72;2.33;;;23.40;32.30;;;;;;4995620;28;20250;-85
2021/09/25 14:13:48;;;;;;;2.90;2.60;;;23.40;32.30;;;;;;5159830;23;20335;-85
2021/09/25 14:16:15;;;;;;;4.53;2.70;;;23.30;32.40;;;;;;5014545;28;20223;-88
2021/09/25 14:18:46;;;;;;;3.10;2.80;;;23.40;33.80;;;;;;5008925;28;20199;-86
2021/09/25 14:21:16;;;;;;;4.60;2.75;;;23.30;32.20;;;;;;5007696;28;20231;-85
2021/09/25 14:23:44;;;;;;;5.15;3.05;;;23.20;34.80;;;;;;5018552;28;20196;-87
2021/09/25 14:26:11;;;;;;;3.13;2.67;;;23.30;35.90;;;;;;5016770;28;20245;-88
2021/09/25 14:28:38;;;;;;;3.38;2.90;;;23.20;31.50;;;;;;5015427;28;20231;-87
2021/09/25 14:31:06;;;;;;;3.05;2.83;;;23.20;34.10;;;;;;5002160;28;20223;-86
2021/09/25 14:33:34;;;;;;;17.33;15.63;;;23.20;31.40;;;;;;5019315;28;20203;-89
2021/09/25 14:36:02;;;;;;;4.65;2.85;;;23.20;30.60;;;;;;5010062;28;20227;-86
2021/09/25 14:38:30;;;;;;;3.05;2.75;;;23.10;32.00;;;;;;5020434;28;20211;-85
2021/09/25 14:40:57;;;;;;;3.90;2.80;;;23.10;31.10;;;;;;5010830;28;20315;-84
2021/09/25 14:43:24;;;;;;;3.78;2.63;;;23.10;31.20;;;;;;5014990;28;20230;-86
2021/09/25 14:45:51;;;;;;;3.08;2.80;;;23.20;34.80;;;;;;5012557;28;20267;-84
2021/09/25 14:48:17;;;;;;;3.22;2.90;;;23.10;34.70;;;;;;5014103;28;20560;-87
2021/09/25 14:50:45;;;;;;;5.22;3.42;;;23.00;34.60;;;;;;5016816;28;20223;-86
2021/09/25 14:53:12;;;;;;;4.50;3.08;;;23.00;34.60;;;;;;5019313;28;20245;-85
2021/09/25 14:55:40;;;;;;;3.55;3.28;;;23.00;34.60;;;;;;5013002;28;20379;-87
2021/09/25 14:58:07;;;;;;;5.28;3.15;;;22.90;35.10;;;;;;5011416;28;20203;-86
2021/09/25 15:00:34;;;;;;;4.35;3.13;;;22.90;38.90;;;;;;5010452;28;20226;-80
2021/09/25 15:03:01;;;;;;;3.72;3.42;;;22.80;38.20;;;;;;5011967;28;20200;-82
2021/09/25 15:05:28;;;;;;;5.10;3.50;;;22.70;39.80;;;;;;5009257;28;20222;-85
2021/09/25 15:07:55;;;;;;;3.08;2.85;;;22.70;39.60;;;;;;5018673;28;20195;-83
2021/09/25 15:10:21;;;;;;;4.63;2.75;;;22.80;40.00;;;;;;5010610;28;20229;-85
2021/09/25 15:12:50;;;;;;;3.30;3.00;;;22.70;39.30;;;;;;5015930;28;20326;-84
2021/09/25 15:15:17;;;;;;;4.55;3.28;;;22.70;38.30;;;;;;5000881;28;20227;-84
2021/09/25 15:17:44;;;;;;;3.42;3.08;;;22.70;38.70;;;;;;5003989;28;20195;-86
2021/09/25 15:20:11;;;;;;;6.55;3.03;;;22.70;40.00;;;;;;5005173;28;20231;-86
2021/09/25 15:22:38;;;;;;;3.28;2.97;;;22.70;40.30;;;;;;5008674;28;20227;-85
2021/09/25 15:25:06;;;;;;;5.03;3.22;;;22.70;40.80;;;;;;5011407;28;20313;-84
2021/09/25 15:27:33;;;;;;;4.05;3.03;;;22.60;44.00;;;;;;5010119;28;20204;-85
2021/09/25 15:30:01;;;;;;;3.60;3.30;;;22.60;42.50;;;;;;5009323;28;20322;-83
2021/09/25 15:32:28;;;;;;;5.32;3.38;;;22.50;42.50;;;;;;4991712;28;20212;-85
2021/09/25 15:34:55;;;;;;;5.55;2.90;;;22.50;43.90;;;;;;5006796;28;20210;-85
2021/09/25 15:37:24;;;;;;;4.15;3.00;;;22.40;42.80;;;;;;5017821;28;20283;-86
2021/09/25 15:39:52;;;;;;;4.05;2.95;;;22.40;42.90;;;;;;5011081;28;20238;-86
2021/09/25 15:42:19;;;;;;;3.30;3.00;;;22.40;42.80;;;;;;5004276;28;20211;-85
2021/09/25 15:44:52;;;;;;;6.65;3.75;;;22.40;43.70;;;;;;5012061;28;20564;-85
2021/09/25 15:47:20;;;;;;;4.57;3.55;;;22.30;43.40;;;;;;5010227;28;20218;-86
2021/09/25 15:49:47;;;;;;;3.70;3.10;;;22.20;43.80;;;;;;5005207;28;20230;-86
2021/09/25 15:52:15;;;;;;;3.40;3.10;;;22.20;43.60;;;;;;5004291;28;20203;-86
2021/09/25 15:54:42;;;;;;;3.25;2.95;;;22.10;44.20;;;;;;5005071;28;20425;-84
2021/09/25 15:57:10;;;;;;;3.67;2.95;;;21.90;44.60;;;;;;5008166;28;20195;-87
2021/09/25 15:59:37;;;;;;;3.67;3.15;;;21.80;45.40;;;;;;5006873;28;20224;-85
2021/09/25 16:02:04;;;;;;;3.47;2.90;;;21.70;45.70;;;;;;5010479;28;20225;-90
2021/09/25 16:04:33;;;;;;;5.32;3.28;;;21.70;46.70;;;;;;5012380;28;21088;-90
2021/09/25 16:07:00;;;;;;;2.85;2.65;;;21.60;47.40;;;;;;5003390;28;20207;-90
2021/09/25 16:09:30;;;;;;;5.57;3.30;;;21.60;48.50;;;;;;5012471;28;20230;-90
2021/09/25 16:11:59;;;;;;;5.00;3.25;;;21.40;50.20;;;;;;5007657;28;20200;-92
2021/09/25 16:14:27;;;;;;;3.60;3.22;;;21.30;51.10;;;;;;5017940;28;20233;-91
2021/09/25 16:16:56;;;;;;;5.50;3.22;;;21.20;53.10;;;;;;5003015;28;20203;-90
2021/09/25 16:28:09;;;;;;;5.35;3.22;;;20.70;56.50;;;;;;5010685;28;20208;-91
2021/09/25 16:30:36;;;;;;;4.90;3.60;;;20.60;56.50;;;;;;5011955;28;20286;-91
2021/09/25 16:35:55;;;;;;;5.60;4.72;;;20.40;58.70;;;;;;5014861;28;20223;-91
2021/09/25 16:38:23;;;;;;;3.78;3.42;;;20.30;59.90;;;;;;5023226;28;20229;-90
2021/09/25 16:40:51;;;;;;;4.90;3.85;;;20.30;62.30;;;;;;5017034;28;20716;-91
2021/09/25 16:43:18;;;;;;;4.53;3.75;;;20.20;63.60;;;;;;5015249;28;20747;-91
2021/09/25 16:45:46;;;;;;;5.38;3.55;;;20.10;65.50;;;;;;5011941;28;20238;-91
2021/09/25 16:48:14;;;;;;;3.85;3.50;;;20.00;66.70;;;;;;5004417;28;20679;-90
2021/09/25 16:50:41;;;;;;;4.00;3.60;;;19.90;67.60;;;;;;5009288;28;20234;-90
2021/09/25 16:53:08;;;;;;;3.60;3.30;;;19.80;69.00;;;;;;5009894;28;20283;-90
2021/09/25 16:58:18;;;;;;;3.90;3.58;;;19.60;70.60;;;;;;5017078;28;20210;-90
2021/09/25 17:00:45;;;;;;;3.88;3.47;;;19.50;72.40;;;;;;5016782;28;20242;-90
2021/09/25 17:03:12;;;;;;;4.85;4.10;;;19.50;73.80;;;;;;5012905;28;20199;-90
2021/09/25 17:05:39;;;;;;;5.47;4.40;;;19.50;74.60;;;;;;5011279;28;20237;-90
2021/09/25 17:08:08;;;;;;;4.43;3.70;;;19.40;75.60;;;;;;5017127;28;20211;-90
2021/09/25 17:10:36;;;;;;;8.40;4.05;;;19.30;75.90;;;;;;5005086;28;20290;-90
2021/09/25 17:13:04;;;;;;;4.72;3.88;;;19.30;76.30;;;;;;5003072;28;20295;-90
2021/09/25 17:15:31;;;;;;;4.85;4.35;;;19.30;76.30;;;;;;5014332;28;20230;-90
2021/09/25 17:17:58;;;;;;;5.75;4.68;;;19.20;76.70;;;;;;5011707;28;20226;-90
2021/09/25 17:20:25;;;;;;;6.70;4.20;;;19.20;76.30;;;;;;5012149;28;20241;-90
2021/09/25 17:23:00;;;;;;;6.43;4.95;;;19.10;76.90;;;;;;4999579;28;20203;-90
2021/09/25 17:25:27;;;;;;;4.65;4.05;;;19.10;78.10;;;;;;5010795;28;20230;-89
2021/09/25 17:27:56;;;;;;;4.75;4.35;;;19.00;77.50;;;;;;5011451;28;20290;-87
2021/09/25 17:30:23;;;;;;;6.03;4.25;;;19.00;78.30;;;;;;5012822;28;20281;-88
2021/09/25 17:32:50;;;;;;;5.50;4.82;;;19.00;80.10;;;;;;5011864;28;20200;-89
2021/09/25 17:35:17;;;;;;;5.18;4.53;;;18.90;80.00;;;;;;5010179;28;20227;-86
2021/09/25 17:37:44;;;;;;;4.18;3.78;;;18.80;80.00;;;;;;5017504;28;20282;-87
2021/09/25 17:40:13;;;;;;;7.95;4.88;;;18.80;80.80;;;;;;5009493;28;20223;-86
2021/09/25 17:42:40;;;;;;;7.40;4.35;;;18.80;81.10;;;;;;5013072;28;20756;-87
2021/09/25 17:45:09;;;;;;;8.57;5.10;;;18.70;82.00;;;;;;5002491;28;20246;-87
2021/09/25 17:47:36;;;;;;;5.90;4.95;;;18.70;82.20;;;;;;5009833;28;20196;-91
2021/09/25 17:50:03;;;;;;;6.30;5.20;;;18.70;82.00;;;;;;5001647;28;20232;-87
2021/09/25 17:52:30;;;;;;;9.05;5.82;;;18.70;82.10;;;;;;5009708;28;20205;-88
2021/09/25 17:54:57;;;;;;;6.20;5.28;;;18.80;82.10;;;;;;5003959;28;20220;-87
2021/09/25 17:57:24;;;;;;;6.50;5.43;;;18.70;81.90;;;;;;5014497;28;20199;-86
2021/09/25 17:59:51;;;;;;;5.95;5.35;;;18.60;82.40;;;;;;5010382;28;20224;-87
2021/09/25 18:02:20;;;;;;;7.70;5.80;;;18.50;83.30;;;;;;5001571;28;20234;-86
2021/09/25 18:04:47;;;;;;;6.70;5.57;;;18.40;84.70;;;;;;5009553;28;20239;-86
2021/09/25 18:07:23;;;;;;;6.70;5.53;;;18.40;85.50;;;;;;5018813;28;20195;-87
2021/09/25 18:09:50;;;;;;;8.77;5.95;;;18.40;85.50;;;;;;5013910;28;20208;-88
2021/09/25 18:12:18;;;;;;;9.27;5.38;;;18.40;85.60;;;;;;5001642;28;20227;-89
2021/09/25 18:14:46;;;;;;;7.18;5.50;;;18.50;85.20;;;;;;5013588;28;20273;-89
2021/09/25 18:17:15;;;;;;;10.15;5.53;;;18.50;85.60;;;;;;5000772;28;20200;-88
2021/09/25 18:19:44;;;;;;;8.02;5.38;;;18.30;86.00;;;;;;5013381;28;20223;-91
2021/09/25 18:22:11;;;;;;;5.82;5.28;;;18.20;86.30;;;;;;5021033;28;20241;-89
2021/09/25 18:24:40;;;;;;;8.20;5.70;;;18.30;86.80;;;;;;5013456;28;20313;-87
2021/09/25 18:27:07;;;;;;;7.28;5.38;;;18.30;86.20;;;;;;5014183;28;20259;-88
2021/09/25 18:29:38;;;;;;;11.77;6.07;;;18.20;87.20;;;;;;5016105;28;20314;-88
2021/09/25 18:32:06;;;;;;;6.90;5.68;;;18.20;86.90;;;;;;5010456;28;20293;-90
2021/09/25 18:34:33;;;;;;;9.35;6.18;;;18.10;88.00;;;;;;5018276;28;20258;-89
2021/09/25 18:37:01;;;;;;;7.80;5.38;;;18.00;88.60;;;;;;4995232;28;20291;-89
2021/09/25 18:39:28;;;;;;;6.72;6.03;;;18.00;89.70;;;;;;5013407;28;20671;-89
2021/09/25 18:41:57;;;;;;;8.13;6.70;;;18.00;90.00;;;;;;5019338;28;20258;-88
2021/09/25 18:44:25;;;;;;;9.35;6.70;;;18.00;90.00;;;;;;5016892;28;20206;-88
2021/09/25 18:46:52;;;;;;;7.28;6.30;;;17.90;90.00;;;;;;5017483;28;20207;-88
2021/09/25 18:49:19;;;;;;;8.05;6.82;;;18.00;90.00;;;;;;5016847;28;20207;-88
2021/09/25 18:51:46;;;;;;;7.57;6.30;;;18.00;89.40;;;;;;5018037;28;20226;-89
2021/09/25 18:54:14;;;;;;;9.07;6.20;;;17.90;90.00;;;;;;5018130;28;20281;-87
2021/09/25 18:56:42;;;;;;;6.97;6.15;;;17.90;90.30;;;;;;5012950;28;20267;-87
2021/09/25 18:59:09;;;;;;;9.40;6.72;;;17.90;90.20;;;;;;5010396;28;20231;-88
2021/09/25 19:01:36;;;;;;;7.03;5.88;;;17.70;90.40;;;;;;4998812;28;20305;-89
2021/09/25 19:04:03;;;;;;;9.18;6.47;;;17.60;90.80;;;;;;5014201;28;20204;-87
2021/09/25 19:06:35;;;;;;;7.60;5.82;;;17.70;90.90;;;;;;5020172;28;20710;-87
2021/09/25 19:09:07;;;;;;;8.65;6.60;;;17.70;91.00;;;;;;5021118;28;20214;-87
2021/09/25 19:11:36;;;;;;;7.00;6.15;;;17.90;90.40;;;;;;5019051;28;20246;-88
2021/09/25 19:14:04;;;;;;;8.10;6.30;;;17.80;90.50;;;;;;5013700;28;20228;-89
2021/09/25 19:16:32;;;;;;;9.50;6.68;;;17.70;91.20;;;;;;5017017;28;20230;-87
2021/09/25 19:19:00;;;;;;;7.50;6.53;;;17.60;91.30;;;;;;5017344;28;20223;-87
2021/09/25 19:21:27;;;;;;;8.65;6.68;;;17.50;92.00;;;;;;5015714;28;20227;-89
2021/09/25 19:23:56;;;;;;;9.57;8.27;;;17.50;92.00;;;;;;5016197;28;20263;-88
2021/09/25 19:26:24;;;;;;;11.93;10.38;;;17.40;92.00;;;;;;5021052;28;20699;-88
2021/09/25 19:28:57;;;;;;;15.43;11.95;;;17.40;92.00;;;;;;5018639;28;20275;-89
2021/09/25 19:31:25;;;;;;;14.90;8.90;;;17.40;92.40;;;;;;5017520;28;20607;-87
2021/09/25 19:33:52;;;;;;;14.27;8.80;;;17.30;92.50;;;;;;5016491;28;20208;-88
2021/09/25 19:36:22;;;;;;;10.90;9.02;;;17.20;92.80;;;;;;5018633;28;20253;-88
2021/09/25 19:38:49;;;;;;;11.15;9.13;;;17.10;93.30;;;;;;5019276;28;20200;-90
2021/09/25 19:41:16;;;;;;;15.05;10.73;;;17.20;93.70;;;;;;5010136;28;20235;-87
2021/09/25 19:43:43;;;;;;;14.73;10.85;;;17.20;93.50;;;;;;5018636;28;20195;-90
2021/09/25 19:46:21;;;;;;;13.00;10.35;;;17.10;93.60;;;;;;5008304;28;20228;-87
2021/09/25 19:48:47;;;;;;;15.55;10.63;;;17.10;93.70;;;;;;5012237;28;20212;-87
2021/09/25 19:51:14;;;;;;;13.18;9.95;;;17.00;94.00;;;;;;5010005;28;20226;-87
2021/09/25 19:53:43;;;;;;;15.23;11.48;;;16.80;94.80;;;;;;5012569;28;20230;-90
2021/09/25 19:56:10;;;;;;;15.93;11.50;;;16.80;94.80;;;;;;5020165;28;20227;-89
2021/09/25 19:58:38;;;;;;;13.63;11.10;;;16.80;94.90;;;;;;5018678;28;20210;-89
2021/09/25 20:01:05;;;;;;;15.55;11.93;;;16.90;95.10;;;;;;5014663;28;20227;-87
2021/09/25 20:03:34;;;;;;;15.43;12.95;;;17.00;94.90;;;;;;5020275;28;20250;-87
2021/09/25 20:06:01;;;;;;;15.27;12.05;;;17.10;94.70;;;;;;5002199;28;20231;-87
2021/09/25 20:08:37;;;;;;;15.73;12.30;;;17.10;94.60;;;;;;5012625;28;20191;-89
2021/09/25 20:11:05;;;;;;;13.15;11.25;;;17.20;94.50;;;;;;5018957;28;20665;-87
2021/09/25 20:13:32;;;;;;;13.68;11.02;;;17.20;94.40;;;;;;5016350;28;20237;-87
2021/09/25 20:15:59;;;;;;;12.77;10.63;;;17.20;94.40;;;;;;5017393;28;20228;-87
2021/09/25 20:18:27;;;;;;;18.40;10.80;;;17.10;94.40;;;;;;5022700;28;20211;-87
2021/09/25 20:20:56;;;;;;;12.75;10.55;;;17.10;94.70;;;;;;5016856;28;20247;-87
2021/09/25 20:23:25;;;;;;;13.13;10.45;;;17.10;94.80;;;;;;5025083;28;20651;-88
2021/09/25 20:26:05;;;;;;;12.70;11.05;;;17.00;94.90;;;;;;5021040;28;20223;-89
2021/09/25 20:28:33;;;;;;;18.52;12.30;;;17.10;94.70;;;;;;5025612;28;20226;-88
2021/09/25 20:31:00;;;;;;;16.08;12.68;;;17.10;94.90;;;;;;5008175;28;20239;-87
2021/09/25 20:33:29;;;;;;;13.30;11.35;;;17.10;94.90;;;;;;5013752;28;20204;-88
2021/09/25 20:35:59;;;;;;;15.07;12.57;;;17.20;94.80;;;;;;5018984;28;20223;-88
2021/09/25 20:38:27;;;;;;;17.50;14.00;;;17.20;94.80;;;;;;5014639;28;20204;-88
2021/09/25 20:40:56;;;;;;;18.17;16.05;;;17.10;94.80;;;;;;5019331;28;20292;-87
2021/09/25 20:43:24;;;;;;;17.23;13.95;;;17.10;94.90;;;;;;5022226;28;20218;-88
2021/09/25 20:45:51;;;;;;;15.02;13.20;;;17.00;95.10;;;;;;5015114;28;20517;-87
2021/09/25 20:48:18;;;;;;;17.23;11.60;;;17.10;95.30;;;;;;5022959;28;20739;-87
2021/09/25 20:50:49;;;;;;;14.32;11.10;;;17.10;95.30;;;;;;5020865;28;20222;-89
2021/09/25 20:53:18;;;;;;;14.52;11.90;;;17.10;95.30;;;;;;5019058;28;20295;-87
2021/09/25 20:55:45;;;;;;;14.05;11.50;;;17.10;95.30;;;;;;5022244;28;20215;-91
2021/09/25 20:58:12;;;;;;;17.92;9.85;;;17.10;95.40;;;;;;5020475;28;20203;-87
2021/09/25 21:00:39;;;;;;;14.90;11.13;;;17.10;95.40;;;;;;5021191;28;20250;-88
2021/09/25 21:03:08;;;;;;;14.52;12.02;;;17.10;95.50;;;;;;5021090;28;21055;-92
2021/09/25 21:05:36;;;;;;;14.35;11.65;;;17.10;95.60;;;;;;5019687;28;20224;-87
2021/09/25 21:08:03;;;;;;;13.95;12.38;;;17.10;95.50;;;;;;5015434;28;20200;-89
2021/09/25 21:10:32;;;;;;;14.23;11.75;;;17.00;95.60;;;;;;5018536;28;20223;-89
2021/09/25 21:12:59;;;;;;;11.63;10.30;;;17.00;96.00;;;;;;5009387;28;20307;-86
2021/09/25 21:15:27;;;;;;;14.80;10.00;;;17.10;96.00;;;;;;5013533;28;20235;-86
2021/09/25 21:17:54;;;;;;;11.77;9.55;;;17.10;96.00;;;;;;5020527;28;20199;-88
2021/09/25 21:20:21;;;;;;;17.02;10.93;;;17.10;95.80;;;;;;5018017;28;20477;-87
2021/09/25 21:22:48;;;;;;;12.40;11.07;;;17.10;95.80;;;;;;5010262;28;20779;-87
2021/09/25 21:25:16;;;;;;;13.20;9.85;;;17.20;95.70;;;;;;5014733;28;20238;-89
2021/09/25 21:27:45;;;;;;;12.30;9.32;;;17.20;95.60;;;;;;5020224;28;20203;-90
2021/09/25 21:30:15;;;;;;;12.52;9.35;;;17.10;95.90;;;;;;5016780;28;20238;-88
2021/09/25 21:32:42;;;;;;;11.70;8.88;;;17.10;95.70;;;;;;5015282;28;20212;-87
2021/09/25 21:35:11;;;;;;;11.20;8.82;;;17.10;95.80;;;;;;5017940;28;20235;-89
2021/09/25 21:37:38;;;;;;;11.45;9.15;;;17.10;95.90;;;;;;5012967;28;20568;-89
2021/09/25 21:40:07;;;;;;;12.68;8.82;;;17.10;95.90;;;;;;5016740;28;20238;-88
2021/09/25 21:42:34;;;;;;;13.10;9.88;;;17.10;95.80;;;;;;5021198;28;20572;-88
2021/09/25 21:45:03;;;;;;;10.93;8.93;;;17.10;95.70;;;;;;5013184;28;20255;-89
2021/09/25 21:47:29;;;;;;;9.65;8.73;;;17.20;95.60;;;;;;5008480;28;20894;-91
2021/09/25 21:49:56;;;;;;;11.60;8.30;;;17.20;95.60;;;;;;5008111;28;20227;-87
2021/09/25 21:52:24;;;;;;;15.73;12.10;;;17.20;95.60;;;;;;5006438;28;20230;-87
2021/09/25 21:54:50;;;;;;;10.25;7.90;;;17.20;95.60;;;;;;5010128;28;20226;-87
2021/09/25 21:57:22;;;;;;;9.40;8.45;;;17.30;95.50;;;;;;5015101;28;20279;-88
2021/09/25 21:59:48;;;;;;;8.85;7.15;;;17.30;95.50;;;;;;5018287;28;20808;-88
2021/09/25 22:02:17;;;;;;;8.40;6.80;;;17.30;95.50;;;;;;5017470;28;20229;-86
2021/09/25 22:04:44;;;;;;;9.55;7.40;;;17.30;95.50;;;;;;5016515;28;20309;-88